sensor_id;sensor_type;location;lat;lon;timestamp;P1;durP1;ratioP1;P2;durP2;ratioP2
75760;SDS011;64373;46.136;8.830;2022-10-16T00:00:42;12.75;;;7.10;;
75760;SDS011;64373;46.136;8.830;2022-10-16T00:03:08;11.63;;;6.82;;
75760;SDS011;64373;46.136;8.830;2022-10-16T00:05:38;9.45;;;7.38;;
75760;SDS011;64373;46.136;8.830;2022-10-16T00:08:08;14.23;;;7.57;;
75760;SDS011;64373;46.136;8.830;2022-10-16T00:10:35;15.65;;;7.93;;
75760;SDS011;64373;46.136;8.830;2022-10-16T00:13:01;9.60;;;5.82;;
75760;SDS011;64373;46.136;8.830;2022-10-16T00:15:26;10.18;;;5.90;;
75760;SDS011;64373;46.136;8.830;2022-10-16T00:17:52;6.30;;;4.63;;
75760;SDS011;64373;46.136;8.830;2022-10-16T00:20:17;6.47;;;4.55;;
75760;SDS011;64373;46.136;8.830;2022-10-16T00:22:42;4.70;;;3.53;;
75760;SDS011;64373;46.136;8.830;2022-10-16T00:25:08;5.78;;;3.72;;
75760;SDS011;64373;46.136;8.830;2022-10-16T00:27:34;5.63;;;4.32;;
75760;SDS011;64373;46.136;8.830;2022-10-16T00:29:59;5.03;;;4.18;;
75760;SDS011;64373;46.136;8.830;2022-10-16T00:32:25;4.03;;;3.33;;
75760;SDS011;64373;46.136;8.830;2022-10-16T00:34:50;4.60;;;3.70;;
75760;SDS011;64373;46.136;8.830;2022-10-16T00:37:16;4.63;;;3.70;;
75760;SDS011;64373;46.136;8.830;2022-10-16T00:39:41;9.43;;;5.80;;
75760;SDS011;64373;46.136;8.830;2022-10-16T00:42:09;5.05;;;3.15;;
75760;SDS011;64373;46.136;8.830;2022-10-16T00:44:42;3.80;;;2.80;;
75760;SDS011;64373;46.136;8.830;2022-10-16T00:47:39;9.55;;;7.00;;
75760;SDS011;64373;46.136;8.830;2022-10-16T00:52:36;9.68;;;6.75;;
75760;SDS011;64373;46.136;8.830;2022-10-16T00:55:02;12.73;;;7.00;;
75760;SDS011;64373;46.136;8.830;2022-10-16T00:57:28;12.00;;;6.70;;
75760;SDS011;64373;46.136;8.830;2022-10-16T00:59:54;10.68;;;7.20;;
75760;SDS011;64373;46.136;8.830;2022-10-16T01:02:19;12.80;;;6.57;;
75760;SDS011;64373;46.136;8.830;2022-10-16T01:04:49;7.32;;;5.55;;
75760;SDS011;64373;46.136;8.830;2022-10-16T01:07:30;5.55;;;3.45;;
75760;SDS011;64373;46.136;8.830;2022-10-16T01:12:48;2.55;;;2.15;;
75760;SDS011;64373;46.136;8.830;2022-10-16T01:15:27;2.60;;;1.83;;
75760;SDS011;64373;46.136;8.830;2022-10-16T01:27:07;11.18;;;7.05;;
75760;SDS011;64373;46.136;8.830;2022-10-16T01:37:53;11.75;;;7.30;;
75760;SDS011;64373;46.136;8.830;2022-10-16T01:40:23;10.20;;;6.82;;
75760;SDS011;64373;46.136;8.830;2022-10-16T01:42:51;8.18;;;5.90;;
75760;SDS011;64373;46.136;8.830;2022-10-16T01:45:18;9.63;;;5.75;;
75760;SDS011;64373;46.136;8.830;2022-10-16T01:47:44;7.10;;;5.93;;
75760;SDS011;64373;46.136;8.830;2022-10-16T01:50:10;7.35;;;4.40;;
75760;SDS011;64373;46.136;8.830;2022-10-16T01:52:39;6.30;;;4.50;;
75760;SDS011;64373;46.136;8.830;2022-10-16T01:55:06;11.52;;;6.53;;
75760;SDS011;64373;46.136;8.830;2022-10-16T01:57:34;12.20;;;6.82;;
75760;SDS011;64373;46.136;8.830;2022-10-16T02:00:04;11.35;;;6.78;;
75760;SDS011;64373;46.136;8.830;2022-10-16T02:02:32;13.73;;;6.93;;
75760;SDS011;64373;46.136;8.830;2022-10-16T02:05:02;9.65;;;7.00;;
75760;SDS011;64373;46.136;8.830;2022-10-16T02:07:30;10.48;;;6.93;;
75760;SDS011;64373;46.136;8.830;2022-10-16T02:09:56;11.48;;;7.20;;
75760;SDS011;64373;46.136;8.830;2022-10-16T02:14:53;10.30;;;7.07;;
75760;SDS011;64373;46.136;8.830;2022-10-16T02:17:19;12.63;;;7.03;;
75760;SDS011;64373;46.136;8.830;2022-10-16T02:19:46;7.53;;;5.35;;
75760;SDS011;64373;46.136;8.830;2022-10-16T02:22:18;5.93;;;4.70;;
75760;SDS011;64373;46.136;8.830;2022-10-16T02:24:57;4.07;;;3.30;;
75760;SDS011;64373;46.136;8.830;2022-10-16T02:30:14;10.45;;;7.10;;
75760;SDS011;64373;46.136;8.830;2022-10-16T02:32:44;10.07;;;6.60;;
75760;SDS011;64373;46.136;8.830;2022-10-16T02:35:11;9.68;;;6.45;;
75760;SDS011;64373;46.136;8.830;2022-10-16T02:37:37;10.15;;;6.90;;
75760;SDS011;64373;46.136;8.830;2022-10-16T02:40:04;11.02;;;7.53;;
75760;SDS011;64373;46.136;8.830;2022-10-16T02:42:36;10.55;;;7.07;;
75760;SDS011;64373;46.136;8.830;2022-10-16T02:45:03;13.45;;;7.13;;
75760;SDS011;64373;46.136;8.830;2022-10-16T02:47:30;10.27;;;6.93;;
75760;SDS011;64373;46.136;8.830;2022-10-16T02:49:55;12.25;;;6.82;;
75760;SDS011;64373;46.136;8.830;2022-10-16T02:52:20;11.57;;;6.90;;
75760;SDS011;64373;46.136;8.830;2022-10-16T02:54:46;9.23;;;6.45;;
75760;SDS011;64373;46.136;8.830;2022-10-16T02:57:11;10.88;;;6.57;;
75760;SDS011;64373;46.136;8.830;2022-10-16T02:59:37;10.63;;;6.55;;
75760;SDS011;64373;46.136;8.830;2022-10-16T03:02:02;11.98;;;6.35;;
75760;SDS011;64373;46.136;8.830;2022-10-16T03:04:28;9.65;;;6.45;;
75760;SDS011;64373;46.136;8.830;2022-10-16T03:06:53;11.82;;;6.90;;
75760;SDS011;64373;46.136;8.830;2022-10-16T03:09:19;10.52;;;6.53;;
75760;SDS011;64373;46.136;8.830;2022-10-16T03:11:44;10.90;;;6.90;;
75760;SDS011;64373;46.136;8.830;2022-10-16T03:14:09;13.18;;;6.60;;
75760;SDS011;64373;46.136;8.830;2022-10-16T03:16:35;10.73;;;6.78;;
75760;SDS011;64373;46.136;8.830;2022-10-16T03:19:00;12.20;;;7.20;;
75760;SDS011;64373;46.136;8.830;2022-10-16T03:21:26;12.18;;;7.32;;
75760;SDS011;64373;46.136;8.830;2022-10-16T03:23:51;10.02;;;6.97;;
75760;SDS011;64373;46.136;8.830;2022-10-16T03:26:17;10.98;;;6.07;;
75760;SDS011;64373;46.136;8.830;2022-10-16T03:28:42;12.88;;;6.85;;
75760;SDS011;64373;46.136;8.830;2022-10-16T03:31:08;11.20;;;7.13;;
75760;SDS011;64373;46.136;8.830;2022-10-16T03:33:33;10.02;;;6.43;;
75760;SDS011;64373;46.136;8.830;2022-10-16T03:35:58;10.57;;;6.55;;
75760;SDS011;64373;46.136;8.830;2022-10-16T03:38:24;11.43;;;6.60;;
75760;SDS011;64373;46.136;8.830;2022-10-16T03:40:49;9.90;;;7.03;;
75760;SDS011;64373;46.136;8.830;2022-10-16T03:43:15;10.02;;;6.15;;
75760;SDS011;64373;46.136;8.830;2022-10-16T03:45:40;10.43;;;6.20;;
75760;SDS011;64373;46.136;8.830;2022-10-16T03:48:06;10.82;;;6.63;;
75760;SDS011;64373;46.136;8.830;2022-10-16T03:50:31;8.98;;;6.45;;
75760;SDS011;64373;46.136;8.830;2022-10-16T03:52:57;9.10;;;6.65;;
75760;SDS011;64373;46.136;8.830;2022-10-16T03:55:22;12.68;;;6.82;;
75760;SDS011;64373;46.136;8.830;2022-10-16T03:57:47;13.40;;;6.93;;
75760;SDS011;64373;46.136;8.830;2022-10-16T04:00:13;9.70;;;6.30;;
75760;SDS011;64373;46.136;8.830;2022-10-16T04:02:39;14.05;;;7.85;;
75760;SDS011;64373;46.136;8.830;2022-10-16T04:05:04;11.00;;;7.75;;
75760;SDS011;64373;46.136;8.830;2022-10-16T04:07:30;12.57;;;7.38;;
75760;SDS011;64373;46.136;8.830;2022-10-16T04:09:55;12.20;;;7.00;;
75760;SDS011;64373;46.136;8.830;2022-10-16T04:12:22;11.27;;;7.65;;
75760;SDS011;64373;46.136;8.830;2022-10-16T04:14:47;10.98;;;7.10;;
75760;SDS011;64373;46.136;8.830;2022-10-16T04:17:13;11.57;;;7.10;;
75760;SDS011;64373;46.136;8.830;2022-10-16T04:19:38;11.93;;;7.40;;
75760;SDS011;64373;46.136;8.830;2022-10-16T04:22:04;9.27;;;6.80;;
75760;SDS011;64373;46.136;8.830;2022-10-16T04:24:29;13.52;;;6.63;;
75760;SDS011;64373;46.136;8.830;2022-10-16T04:26:54;11.70;;;6.68;;
75760;SDS011;64373;46.136;8.830;2022-10-16T04:29:20;10.90;;;6.50;;
75760;SDS011;64373;46.136;8.830;2022-10-16T04:31:46;11.20;;;6.90;;
75760;SDS011;64373;46.136;8.830;2022-10-16T04:34:11;13.75;;;7.13;;
75760;SDS011;64373;46.136;8.830;2022-10-16T04:36:37;9.90;;;6.25;;
75760;SDS011;64373;46.136;8.830;2022-10-16T04:39:02;12.80;;;7.50;;
75760;SDS011;64373;46.136;8.830;2022-10-16T04:41:28;10.73;;;6.78;;
75760;SDS011;64373;46.136;8.830;2022-10-16T04:43:53;9.70;;;6.82;;
75760;SDS011;64373;46.136;8.830;2022-10-16T04:46:18;9.98;;;7.18;;
75760;SDS011;64373;46.136;8.830;2022-10-16T04:48:44;10.23;;;6.90;;
75760;SDS011;64373;46.136;8.830;2022-10-16T04:51:10;13.57;;;7.43;;
75760;SDS011;64373;46.136;8.830;2022-10-16T04:53:35;10.77;;;6.57;;
75760;SDS011;64373;46.136;8.830;2022-10-16T04:56:01;11.38;;;6.45;;
75760;SDS011;64373;46.136;8.830;2022-10-16T04:58:27;10.07;;;6.80;;
75760;SDS011;64373;46.136;8.830;2022-10-16T05:00:52;12.43;;;7.03;;
75760;SDS011;64373;46.136;8.830;2022-10-16T05:03:18;10.13;;;6.50;;
75760;SDS011;64373;46.136;8.830;2022-10-16T05:05:44;10.38;;;6.93;;
75760;SDS011;64373;46.136;8.830;2022-10-16T05:08:11;10.05;;;7.07;;
75760;SDS011;64373;46.136;8.830;2022-10-16T05:10:37;9.07;;;6.70;;
75760;SDS011;64373;46.136;8.830;2022-10-16T05:13:02;10.63;;;7.05;;
75760;SDS011;64373;46.136;8.830;2022-10-16T05:15:28;9.27;;;6.80;;
75760;SDS011;64373;46.136;8.830;2022-10-16T05:17:54;12.23;;;6.78;;
75760;SDS011;64373;46.136;8.830;2022-10-16T05:20:20;12.55;;;6.78;;
75760;SDS011;64373;46.136;8.830;2022-10-16T05:22:45;9.60;;;6.65;;
75760;SDS011;64373;46.136;8.830;2022-10-16T05:25:11;9.65;;;6.93;;
75760;SDS011;64373;46.136;8.830;2022-10-16T05:27:36;12.35;;;7.13;;
75760;SDS011;64373;46.136;8.830;2022-10-16T05:30:02;11.10;;;6.97;;
75760;SDS011;64373;46.136;8.830;2022-10-16T05:32:27;12.57;;;6.72;;
75760;SDS011;64373;46.136;8.830;2022-10-16T05:34:53;12.05;;;6.78;;
75760;SDS011;64373;46.136;8.830;2022-10-16T05:37:18;10.63;;;6.32;;
75760;SDS011;64373;46.136;8.830;2022-10-16T05:39:44;14.45;;;6.93;;
75760;SDS011;64373;46.136;8.830;2022-10-16T05:42:09;9.52;;;6.57;;
75760;SDS011;64373;46.136;8.830;2022-10-16T05:44:34;9.52;;;6.97;;
75760;SDS011;64373;46.136;8.830;2022-10-16T05:47:00;9.13;;;7.00;;
75760;SDS011;64373;46.136;8.830;2022-10-16T05:49:25;10.30;;;6.25;;
75760;SDS011;64373;46.136;8.830;2022-10-16T05:51:50;10.30;;;6.88;;
75760;SDS011;64373;46.136;8.830;2022-10-16T05:54:16;10.38;;;6.78;;
75760;SDS011;64373;46.136;8.830;2022-10-16T05:56:41;12.70;;;7.30;;
75760;SDS011;64373;46.136;8.830;2022-10-16T05:59:07;8.43;;;6.38;;
75760;SDS011;64373;46.136;8.830;2022-10-16T06:01:32;12.25;;;7.57;;
75760;SDS011;64373;46.136;8.830;2022-10-16T06:03:58;13.60;;;6.88;;
75760;SDS011;64373;46.136;8.830;2022-10-16T06:06:25;10.30;;;6.75;;
75760;SDS011;64373;46.136;8.830;2022-10-16T06:08:51;11.75;;;7.00;;
75760;SDS011;64373;46.136;8.830;2022-10-16T06:11:21;13.07;;;6.85;;
75760;SDS011;64373;46.136;8.830;2022-10-16T06:13:51;10.02;;;6.75;;
75760;SDS011;64373;46.136;8.830;2022-10-16T06:16:17;12.02;;;6.70;;
75760;SDS011;64373;46.136;8.830;2022-10-16T06:18:43;9.55;;;6.80;;
75760;SDS011;64373;46.136;8.830;2022-10-16T06:21:09;9.57;;;7.03;;
75760;SDS011;64373;46.136;8.830;2022-10-16T06:23:45;10.07;;;6.47;;
75760;SDS011;64373;46.136;8.830;2022-10-16T06:26:15;12.80;;;6.95;;
75760;SDS011;64373;46.136;8.830;2022-10-16T06:28:42;9.88;;;6.70;;
75760;SDS011;64373;46.136;8.830;2022-10-16T06:31:08;9.75;;;6.55;;
75760;SDS011;64373;46.136;8.830;2022-10-16T06:33:35;8.70;;;6.65;;
75760;SDS011;64373;46.136;8.830;2022-10-16T06:36:05;12.63;;;8.05;;
75760;SDS011;64373;46.136;8.830;2022-10-16T06:38:35;9.32;;;6.70;;
75760;SDS011;64373;46.136;8.830;2022-10-16T06:41:01;10.20;;;6.78;;
75760;SDS011;64373;46.136;8.830;2022-10-16T06:43:30;10.23;;;6.82;;
75760;SDS011;64373;46.136;8.830;2022-10-16T06:46:00;9.55;;;6.72;;
75760;SDS011;64373;46.136;8.830;2022-10-16T06:48:26;9.45;;;6.65;;
75760;SDS011;64373;46.136;8.830;2022-10-16T06:50:56;10.93;;;6.30;;
75760;SDS011;64373;46.136;8.830;2022-10-16T06:53:27;10.43;;;7.18;;
75760;SDS011;64373;46.136;8.830;2022-10-16T06:55:54;10.93;;;6.57;;
75760;SDS011;64373;46.136;8.830;2022-10-16T06:58:19;8.90;;;6.05;;
75760;SDS011;64373;46.136;8.830;2022-10-16T07:00:45;10.00;;;6.82;;
75760;SDS011;64373;46.136;8.830;2022-10-16T07:03:11;9.25;;;7.28;;
75760;SDS011;64373;46.136;8.830;2022-10-16T07:05:40;11.45;;;7.25;;
75760;SDS011;64373;46.136;8.830;2022-10-16T07:08:06;11.50;;;7.47;;
75760;SDS011;64373;46.136;8.830;2022-10-16T07:10:32;8.63;;;6.40;;
75760;SDS011;64373;46.136;8.830;2022-10-16T07:12:58;8.25;;;6.38;;
75760;SDS011;64373;46.136;8.830;2022-10-16T07:15:24;9.43;;;6.05;;
75760;SDS011;64373;46.136;8.830;2022-10-16T07:17:49;8.90;;;6.10;;
75760;SDS011;64373;46.136;8.830;2022-10-16T07:20:15;10.07;;;6.85;;
75760;SDS011;64373;46.136;8.830;2022-10-16T07:22:40;9.98;;;6.47;;
75760;SDS011;64373;46.136;8.830;2022-10-16T07:25:06;9.27;;;6.95;;
75760;SDS011;64373;46.136;8.830;2022-10-16T07:27:32;9.25;;;6.80;;
75760;SDS011;64373;46.136;8.830;2022-10-16T07:29:58;11.15;;;7.28;;
75760;SDS011;64373;46.136;8.830;2022-10-16T07:32:23;9.48;;;7.13;;
75760;SDS011;64373;46.136;8.830;2022-10-16T07:34:50;10.98;;;7.18;;
75760;SDS011;64373;46.136;8.830;2022-10-16T07:37:16;9.00;;;6.32;;
75760;SDS011;64373;46.136;8.830;2022-10-16T07:39:41;12.52;;;7.40;;
75760;SDS011;64373;46.136;8.830;2022-10-16T07:42:07;9.35;;;7.05;;
75760;SDS011;64373;46.136;8.830;2022-10-16T07:44:32;9.98;;;6.93;;
75760;SDS011;64373;46.136;8.830;2022-10-16T07:46:58;10.75;;;6.93;;
75760;SDS011;64373;46.136;8.830;2022-10-16T07:49:23;12.93;;;6.95;;
75760;SDS011;64373;46.136;8.830;2022-10-16T07:51:49;10.40;;;6.88;;
75760;SDS011;64373;46.136;8.830;2022-10-16T07:54:14;11.52;;;7.20;;
75760;SDS011;64373;46.136;8.830;2022-10-16T07:56:40;10.32;;;6.45;;
75760;SDS011;64373;46.136;8.830;2022-10-16T07:59:05;11.02;;;6.32;;
75760;SDS011;64373;46.136;8.830;2022-10-16T08:01:31;9.75;;;5.85;;
75760;SDS011;64373;46.136;8.830;2022-10-16T08:03:56;9.10;;;5.65;;
75760;SDS011;64373;46.136;8.830;2022-10-16T08:06:22;11.43;;;6.25;;
75760;SDS011;64373;46.136;8.830;2022-10-16T08:08:47;8.82;;;5.75;;
75760;SDS011;64373;46.136;8.830;2022-10-16T08:11:13;8.07;;;5.95;;
75760;SDS011;64373;46.136;8.830;2022-10-16T08:13:40;11.32;;;6.43;;
75760;SDS011;64373;46.136;8.830;2022-10-16T08:16:06;8.63;;;7.15;;
75760;SDS011;64373;46.136;8.830;2022-10-16T08:18:39;11.50;;;6.93;;
75760;SDS011;64373;46.136;8.830;2022-10-16T08:21:06;9.85;;;6.95;;
75760;SDS011;64373;46.136;8.830;2022-10-16T08:23:32;12.25;;;7.40;;
75760;SDS011;64373;46.136;8.830;2022-10-16T08:26:02;11.30;;;6.97;;
75760;SDS011;64373;46.136;8.830;2022-10-16T08:28:30;9.93;;;6.68;;
75760;SDS011;64373;46.136;8.830;2022-10-16T08:30:55;10.25;;;7.15;;
75760;SDS011;64373;46.136;8.830;2022-10-16T08:33:22;9.95;;;7.35;;
75760;SDS011;64373;46.136;8.830;2022-10-16T08:35:53;11.25;;;6.68;;
75760;SDS011;64373;46.136;8.830;2022-10-16T08:38:19;8.65;;;6.70;;
75760;SDS011;64373;46.136;8.830;2022-10-16T08:40:45;8.93;;;7.03;;
75760;SDS011;64373;46.136;8.830;2022-10-16T08:49:03;8.13;;;6.30;;
75760;SDS011;64373;46.136;8.830;2022-10-16T08:51:34;8.55;;;5.95;;
75760;SDS011;64373;46.136;8.830;2022-10-16T08:57:24;8.27;;;5.70;;
75760;SDS011;64373;46.136;8.830;2022-10-16T08:59:51;9.25;;;6.68;;
75760;SDS011;64373;46.136;8.830;2022-10-16T09:02:31;8.20;;;6.22;;
75760;SDS011;64373;46.136;8.830;2022-10-16T09:05:17;8.93;;;6.30;;
75760;SDS011;64373;46.136;8.830;2022-10-16T09:10:38;9.32;;;6.38;;
75760;SDS011;64373;46.136;8.830;2022-10-16T09:20:49;13.10;;;7.68;;
75760;SDS011;64373;46.136;8.830;2022-10-16T09:25:54;9.60;;;6.57;;
75760;SDS011;64373;46.136;8.830;2022-10-16T09:28:20;9.45;;;6.97;;
75760;SDS011;64373;46.136;8.830;2022-10-16T09:30:45;11.25;;;6.35;;
75760;SDS011;64373;46.136;8.830;2022-10-16T09:33:13;10.30;;;7.60;;
75760;SDS011;64373;46.136;8.830;2022-10-16T09:35:40;11.55;;;7.75;;
75760;SDS011;64373;46.136;8.830;2022-10-16T09:38:08;9.18;;;6.43;;
75760;SDS011;64373;46.136;8.830;2022-10-16T09:40:34;9.00;;;6.88;;
75760;SDS011;64373;46.136;8.830;2022-10-16T09:43:03;7.43;;;5.63;;
75760;SDS011;64373;46.136;8.830;2022-10-16T09:45:31;9.60;;;6.70;;
75760;SDS011;64373;46.136;8.830;2022-10-16T09:47:57;8.90;;;6.80;;
75760;SDS011;64373;46.136;8.830;2022-10-16T09:50:27;7.93;;;6.47;;
75760;SDS011;64373;46.136;8.830;2022-10-16T09:55:33;8.98;;;6.57;;
75760;SDS011;64373;46.136;8.830;2022-10-16T09:57:58;7.70;;;5.88;;
75760;SDS011;64373;46.136;8.830;2022-10-16T10:00:24;8.38;;;6.88;;
75760;SDS011;64373;46.136;8.830;2022-10-16T10:02:50;10.70;;;6.78;;
75760;SDS011;64373;46.136;8.830;2022-10-16T10:05:26;10.55;;;8.20;;
75760;SDS011;64373;46.136;8.830;2022-10-16T10:07:59;7.75;;;6.95;;
75760;SDS011;64373;46.136;8.830;2022-10-16T10:10:31;9.07;;;6.75;;
75760;SDS011;64373;46.136;8.830;2022-10-16T10:12:57;9.35;;;6.72;;
75760;SDS011;64373;46.136;8.830;2022-10-16T10:15:24;9.90;;;7.38;;
75760;SDS011;64373;46.136;8.830;2022-10-16T10:17:55;12.02;;;7.88;;
75760;SDS011;64373;46.136;8.830;2022-10-16T10:20:23;7.32;;;5.40;;
75760;SDS011;64373;46.136;8.830;2022-10-16T10:22:52;9.68;;;6.53;;
75760;SDS011;64373;46.136;8.830;2022-10-16T10:47:31;11.13;;;8.10;;
75760;SDS011;64373;46.136;8.830;2022-10-16T10:50:10;9.63;;;7.28;;
75760;SDS011;64373;46.136;8.830;2022-10-16T10:52:45;9.70;;;7.85;;
75760;SDS011;64373;46.136;8.830;2022-10-16T10:58:10;8.85;;;6.40;;
75760;SDS011;64373;46.136;8.830;2022-10-16T11:00:42;6.47;;;5.43;;
75760;SDS011;64373;46.136;8.830;2022-10-16T11:05:57;6.85;;;4.93;;
75760;SDS011;64373;46.136;8.830;2022-10-16T11:08:35;4.18;;;3.60;;
75760;SDS011;64373;46.136;8.830;2022-10-16T11:11:20;5.90;;;4.30;;
75760;SDS011;64373;46.136;8.830;2022-10-16T11:16:35;4.90;;;4.28;;
75760;SDS011;64373;46.136;8.830;2022-10-16T11:19:03;6.07;;;3.28;;
75760;SDS011;64373;46.136;8.830;2022-10-16T11:21:46;3.92;;;3.30;;
75760;SDS011;64373;46.136;8.830;2022-10-16T11:24:36;9.02;;;7.38;;
75760;SDS011;64373;46.136;8.830;2022-10-16T11:27:09;11.75;;;7.50;;
75760;SDS011;64373;46.136;8.830;2022-10-16T11:29:42;10.20;;;7.95;;
75760;SDS011;64373;46.136;8.830;2022-10-16T11:32:19;12.77;;;7.40;;
75760;SDS011;64373;46.136;8.830;2022-10-16T11:34:56;9.60;;;7.40;;
75760;SDS011;64373;46.136;8.830;2022-10-16T11:37:25;13.05;;;8.00;;
75760;SDS011;64373;46.136;8.830;2022-10-16T11:39:57;12.10;;;7.43;;
75760;SDS011;64373;46.136;8.830;2022-10-16T11:42:37;8.25;;;6.88;;
75760;SDS011;64373;46.136;8.830;2022-10-16T11:45:26;10.68;;;7.32;;
75760;SDS011;64373;46.136;8.830;2022-10-16T11:50:58;9.27;;;7.22;;
75760;SDS011;64373;46.136;8.830;2022-10-16T11:53:49;14.18;;;9.68;;
75760;SDS011;64373;46.136;8.830;2022-10-16T11:56:19;12.13;;;7.80;;
75760;SDS011;64373;46.136;8.830;2022-10-16T11:59:02;9.38;;;6.95;;
75760;SDS011;64373;46.136;8.830;2022-10-16T12:01:43;9.57;;;6.82;;
75760;SDS011;64373;46.136;8.830;2022-10-16T12:04:17;12.60;;;6.93;;
75760;SDS011;64373;46.136;8.830;2022-10-16T12:06:58;10.68;;;7.80;;
75760;SDS011;64373;46.136;8.830;2022-10-16T12:09:32;11.25;;;7.70;;
75760;SDS011;64373;46.136;8.830;2022-10-16T12:12:01;7.18;;;5.18;;
75760;SDS011;64373;46.136;8.830;2022-10-16T12:16:56;4.75;;;3.60;;
75760;SDS011;64373;46.136;8.830;2022-10-16T12:19:30;8.35;;;5.88;;
75760;SDS011;64373;46.136;8.830;2022-10-16T12:21:59;4.75;;;3.95;;
75760;SDS011;64373;46.136;8.830;2022-10-16T12:24:29;6.13;;;4.68;;
75760;SDS011;64373;46.136;8.830;2022-10-16T12:26:57;4.72;;;3.63;;
75760;SDS011;64373;46.136;8.830;2022-10-16T12:32:00;7.03;;;4.65;;
75760;SDS011;64373;46.136;8.830;2022-10-16T12:34:41;6.32;;;4.90;;
75760;SDS011;64373;46.136;8.830;2022-10-16T12:37:13;7.60;;;5.90;;
75760;SDS011;64373;46.136;8.830;2022-10-16T12:39:46;7.60;;;5.65;;
75760;SDS011;64373;46.136;8.830;2022-10-16T12:42:23;8.85;;;6.28;;
75760;SDS011;64373;46.136;8.830;2022-10-16T12:44:56;8.98;;;6.78;;
75760;SDS011;64373;46.136;8.830;2022-10-16T12:47:23;9.43;;;7.13;;
75760;SDS011;64373;46.136;8.830;2022-10-16T12:50:00;6.50;;;5.50;;
75760;SDS011;64373;46.136;8.830;2022-10-16T12:54:52;9.38;;;7.10;;
75760;SDS011;64373;46.136;8.830;2022-10-16T13:00:45;5.38;;;4.65;;
75760;SDS011;64373;46.136;8.830;2022-10-16T13:05:59;5.72;;;4.63;;
75760;SDS011;64373;46.136;8.830;2022-10-16T13:08:40;4.60;;;4.10;;
75760;SDS011;64373;46.136;8.830;2022-10-16T13:11:19;3.47;;;2.70;;
75760;SDS011;64373;46.136;8.830;2022-10-16T13:22:26;10.60;;;7.43;;
75760;SDS011;64373;46.136;8.830;2022-10-16T13:30:11;9.75;;;7.07;;
75760;SDS011;64373;46.136;8.830;2022-10-16T13:35:15;8.82;;;6.68;;
75760;SDS011;64373;46.136;8.830;2022-10-16T13:37:44;6.05;;;4.47;;
75760;SDS011;64373;46.136;8.830;2022-10-16T13:40:20;11.80;;;6.28;;
75760;SDS011;64373;46.136;8.830;2022-10-16T13:42:47;11.80;;;6.82;;
75760;SDS011;64373;46.136;8.830;2022-10-16T13:45:17;11.18;;;6.97;;
75760;SDS011;64373;46.136;8.830;2022-10-16T13:47:43;11.93;;;7.13;;
75760;SDS011;64373;46.136;8.830;2022-10-16T13:50:11;10.73;;;7.38;;
75760;SDS011;64373;46.136;8.830;2022-10-16T13:52:38;10.10;;;7.28;;
75760;SDS011;64373;46.136;8.830;2022-10-16T13:55:10;9.38;;;6.05;;
75760;SDS011;64373;46.136;8.830;2022-10-16T13:57:39;9.93;;;7.03;;
75760;SDS011;64373;46.136;8.830;2022-10-16T14:00:25;6.70;;;4.78;;
75760;SDS011;64373;46.136;8.830;2022-10-16T14:03:05;5.22;;;3.17;;
75760;SDS011;64373;46.136;8.830;2022-10-16T14:05:32;5.35;;;4.30;;
75760;SDS011;64373;46.136;8.830;2022-10-16T14:07:58;2.83;;;2.53;;
75760;SDS011;64373;46.136;8.830;2022-10-16T14:10:27;9.68;;;7.93;;
75760;SDS011;64373;46.136;8.830;2022-10-16T14:12:59;10.63;;;8.02;;
75760;SDS011;64373;46.136;8.830;2022-10-16T14:15:29;11.70;;;8.25;;
75760;SDS011;64373;46.136;8.830;2022-10-16T14:17:55;12.68;;;8.38;;
75760;SDS011;64373;46.136;8.830;2022-10-16T14:20:23;14.68;;;8.88;;
75760;SDS011;64373;46.136;8.830;2022-10-16T14:22:58;13.07;;;8.23;;
75760;SDS011;64373;46.136;8.830;2022-10-16T14:25:27;9.48;;;7.60;;
75760;SDS011;64373;46.136;8.830;2022-10-16T14:28:04;10.77;;;8.43;;
75760;SDS011;64373;46.136;8.830;2022-10-16T14:30:48;7.65;;;5.25;;
75760;SDS011;64373;46.136;8.830;2022-10-16T14:33:20;12.45;;;7.47;;
75760;SDS011;64373;46.136;8.830;2022-10-16T14:38:38;5.65;;;4.00;;
75760;SDS011;64373;46.136;8.830;2022-10-16T14:41:04;5.30;;;4.43;;
75760;SDS011;64373;46.136;8.830;2022-10-16T14:43:34;11.27;;;8.75;;
75760;SDS011;64373;46.136;8.830;2022-10-16T14:46:00;12.73;;;8.60;;
75760;SDS011;64373;46.136;8.830;2022-10-16T14:48:27;14.23;;;9.25;;
75760;SDS011;64373;46.136;8.830;2022-10-16T14:50:53;11.85;;;8.27;;
75760;SDS011;64373;46.136;8.830;2022-10-16T14:53:18;16.35;;;8.93;;
75760;SDS011;64373;46.136;8.830;2022-10-16T14:55:44;15.30;;;8.95;;
75760;SDS011;64373;46.136;8.830;2022-10-16T14:58:13;10.43;;;8.20;;
75760;SDS011;64373;46.136;8.830;2022-10-16T15:00:48;7.90;;;6.40;;
75760;SDS011;64373;46.136;8.830;2022-10-16T15:03:14;10.05;;;6.38;;
75760;SDS011;64373;46.136;8.830;2022-10-16T15:05:39;5.20;;;3.65;;
75760;SDS011;64373;46.136;8.830;2022-10-16T15:08:05;6.43;;;5.07;;
75760;SDS011;64373;46.136;8.830;2022-10-16T15:10:31;5.40;;;3.20;;
75760;SDS011;64373;46.136;8.830;2022-10-16T15:12:58;3.67;;;2.88;;
75760;SDS011;64373;46.136;8.830;2022-10-16T15:18:15;4.88;;;4.13;;
75760;SDS011;64373;46.136;8.830;2022-10-16T15:20:47;11.60;;;7.60;;
75760;SDS011;64373;46.136;8.830;2022-10-16T15:23:16;9.77;;;6.93;;
75760;SDS011;64373;46.136;8.830;2022-10-16T15:25:47;13.43;;;9.02;;
75760;SDS011;64373;46.136;8.830;2022-10-16T15:28:14;12.85;;;7.90;;
75760;SDS011;64373;46.136;8.830;2022-10-16T15:30:41;12.85;;;6.90;;
75760;SDS011;64373;46.136;8.830;2022-10-16T15:33:14;10.02;;;7.68;;
75760;SDS011;64373;46.136;8.830;2022-10-16T15:35:47;4.60;;;4.00;;
75760;SDS011;64373;46.136;8.830;2022-10-16T15:38:13;6.78;;;4.53;;
75760;SDS011;64373;46.136;8.830;2022-10-16T15:40:39;4.75;;;3.47;;
75760;SDS011;64373;46.136;8.830;2022-10-16T15:43:04;3.70;;;2.92;;
75760;SDS011;64373;46.136;8.830;2022-10-16T15:45:30;3.00;;;2.63;;
75760;SDS011;64373;46.136;8.830;2022-10-16T15:47:55;2.67;;;2.00;;
75760;SDS011;64373;46.136;8.830;2022-10-16T15:50:21;11.95;;;7.97;;
75760;SDS011;64373;46.136;8.830;2022-10-16T15:52:46;8.90;;;6.53;;
75760;SDS011;64373;46.136;8.830;2022-10-16T15:55:12;9.15;;;7.03;;
75760;SDS011;64373;46.136;8.830;2022-10-16T15:57:38;11.77;;;7.07;;
75760;SDS011;64373;46.136;8.830;2022-10-16T16:00:09;9.38;;;7.28;;
75760;SDS011;64373;46.136;8.830;2022-10-16T16:02:37;10.52;;;6.53;;
75760;SDS011;64373;46.136;8.830;2022-10-16T16:05:02;8.55;;;6.60;;
75760;SDS011;64373;46.136;8.830;2022-10-16T16:07:28;9.23;;;6.63;;
75760;SDS011;64373;46.136;8.830;2022-10-16T16:09:57;9.38;;;6.38;;
75760;SDS011;64373;46.136;8.830;2022-10-16T16:12:22;9.98;;;6.72;;
75760;SDS011;64373;46.136;8.830;2022-10-16T16:14:48;7.32;;;4.97;;
75760;SDS011;64373;46.136;8.830;2022-10-16T16:17:14;9.25;;;7.10;;
75760;SDS011;64373;46.136;8.830;2022-10-16T16:19:39;12.65;;;7.30;;
75760;SDS011;64373;46.136;8.830;2022-10-16T16:22:05;9.68;;;7.20;;
75760;SDS011;64373;46.136;8.830;2022-10-16T16:24:31;11.40;;;6.80;;
75760;SDS011;64373;46.136;8.830;2022-10-16T16:26:56;15.80;;;7.47;;
75760;SDS011;64373;46.136;8.830;2022-10-16T16:29:21;11.07;;;7.55;;
75760;SDS011;64373;46.136;8.830;2022-10-16T16:31:47;12.48;;;7.50;;
75760;SDS011;64373;46.136;8.830;2022-10-16T16:34:13;12.02;;;7.65;;
75760;SDS011;64373;46.136;8.830;2022-10-16T16:36:39;10.05;;;7.22;;
75760;SDS011;64373;46.136;8.830;2022-10-16T16:39:05;10.45;;;7.15;;
75760;SDS011;64373;46.136;8.830;2022-10-16T16:41:31;13.02;;;7.93;;
75760;SDS011;64373;46.136;8.830;2022-10-16T16:44:04;13.05;;;8.07;;
75760;SDS011;64373;46.136;8.830;2022-10-16T16:46:32;10.57;;;7.07;;
75760;SDS011;64373;46.136;8.830;2022-10-16T16:48:58;14.07;;;8.50;;